sensor_id;sensor_type;location;lat;lon;timestamp;temperature;humidity
53978;DHT22;39886;47.984;-1.586;2023-01-08T00:00:50;19.30;66.40
53978;DHT22;39886;47.984;-1.586;2023-01-08T00:03:17;19.20;66.60
53978;DHT22;39886;47.984;-1.586;2023-01-08T00:05:43;19.10;66.80
53978;DHT22;39886;47.984;-1.586;2023-01-08T00:08:09;19.10;67.00
53978;DHT22;39886;47.984;-1.586;2023-01-08T00:10:36;19.00;67.20
53978;DHT22;39886;47.984;-1.586;2023-01-08T00:13:02;18.90;67.30
53978;DHT22;39886;47.984;-1.586;2023-01-08T00:15:28;18.90;67.40
53978;DHT22;39886;47.984;-1.586;2023-01-08T00:17:55;18.90;67.60
53978;DHT22;39886;47.984;-1.586;2023-01-08T00:20:21;18.80;67.60
53978;DHT22;39886;47.984;-1.586;2023-01-08T00:22:48;18.80;67.80
53978;DHT22;39886;47.984;-1.586;2023-01-08T00:25:14;18.80;67.90
53978;DHT22;39886;47.984;-1.586;2023-01-08T00:27:39;18.70;67.90
53978;DHT22;39886;47.984;-1.586;2023-01-08T00:30:05;18.70;68.00
53978;DHT22;39886;47.984;-1.586;2023-01-08T00:32:31;18.70;68.00
53978;DHT22;39886;47.984;-1.586;2023-01-08T00:34:57;18.60;68.00
53978;DHT22;39886;47.984;-1.586;2023-01-08T00:37:23;18.60;68.10
53978;DHT22;39886;47.984;-1.586;2023-01-08T00:39:49;18.60;68.20
53978;DHT22;39886;47.984;-1.586;2023-01-08T00:42:14;18.50;68.10
53978;DHT22;39886;47.984;-1.586;2023-01-08T00:44:40;18.50;68.20
53978;DHT22;39886;47.984;-1.586;2023-01-08T00:47:06;18.50;68.20
53978;DHT22;39886;47.984;-1.586;2023-01-08T00:49:31;18.50;68.30
53978;DHT22;39886;47.984;-1.586;2023-01-08T00:51:57;18.50;68.30
53978;DHT22;39886;47.984;-1.586;2023-01-08T00:54:23;18.40;68.30
53978;DHT22;39886;47.984;-1.586;2023-01-08T00:56:48;18.40;68.30
53978;DHT22;39886;47.984;-1.586;2023-01-08T00:59:14;18.40;68.40
53978;DHT22;39886;47.984;-1.586;2023-01-08T01:01:40;18.40;68.40
53978;DHT22;39886;47.984;-1.586;2023-01-08T01:04:06;18.40;68.50
53978;DHT22;39886;47.984;-1.586;2023-01-08T01:06:31;18.30;68.50
53978;DHT22;39886;47.984;-1.586;2023-01-08T01:08:57;18.30;68.50
53978;DHT22;39886;47.984;-1.586;2023-01-08T01:11:25;18.40;68.60
53978;DHT22;39886;47.984;-1.586;2023-01-08T01:13:52;18.30;68.50
53978;DHT22;39886;47.984;-1.586;2023-01-08T01:16:18;18.30;68.60
53978;DHT22;39886;47.984;-1.586;2023-01-08T01:18:44;18.30;68.60
53978;DHT22;39886;47.984;-1.586;2023-01-08T01:21:21;18.30;68.70
53978;DHT22;39886;47.984;-1.586;2023-01-08T01:23:48;18.20;68.70
53978;DHT22;39886;47.984;-1.586;2023-01-08T01:26:19;18.20;68.70
53978;DHT22;39886;47.984;-1.586;2023-01-08T01:28:49;18.20;68.70
53978;DHT22;39886;47.984;-1.586;2023-01-08T01:31:16;18.20;68.80
53978;DHT22;39886;47.984;-1.586;2023-01-08T01:33:42;18.20;68.80
53978;DHT22;39886;47.984;-1.586;2023-01-08T01:36:10;18.10;68.80
53978;DHT22;39886;47.984;-1.586;2023-01-08T01:38:37;18.20;68.90
53978;DHT22;39886;47.984;-1.586;2023-01-08T01:41:02;18.10;68.90
53978;DHT22;39886;47.984;-1.586;2023-01-08T01:43:37;18.10;68.90
53978;DHT22;39886;47.984;-1.586;2023-01-08T01:46:14;18.10;69.00
53978;DHT22;39886;47.984;-1.586;2023-01-08T01:48:41;18.10;69.00
53978;DHT22;39886;47.984;-1.586;2023-01-08T01:51:07;18.00;69.00
53978;DHT22;39886;47.984;-1.586;2023-01-08T01:53:33;18.00;69.00
53978;DHT22;39886;47.984;-1.586;2023-01-08T01:56:02;18.10;68.80
53978;DHT22;39886;47.984;-1.586;2023-01-08T01:58:30;18.30;68.40
53978;DHT22;39886;47.984;-1.586;2023-01-08T02:01:00;18.40;68.00
53978;DHT22;39886;47.984;-1.586;2023-01-08T02:03:29;18.50;67.80
53978;DHT22;39886;47.984;-1.586;2023-01-08T02:08:54;18.70;67.30
53978;DHT22;39886;47.984;-1.586;2023-01-08T02:11:28;18.80;67.00
53978;DHT22;39886;47.984;-1.586;2023-01-08T02:14:06;18.80;66.70
53978;DHT22;39886;47.984;-1.586;2023-01-08T02:25:11;19.00;66.00
53978;DHT22;39886;47.984;-1.586;2023-01-08T02:27:44;19.20;65.90
53978;DHT22;39886;47.984;-1.586;2023-01-08T02:30:12;19.20;65.70
53978;DHT22;39886;47.984;-1.586;2023-01-08T02:32:39;19.20;65.60
53978;DHT22;39886;47.984;-1.586;2023-01-08T02:35:07;19.20;65.50
53978;DHT22;39886;47.984;-1.586;2023-01-08T02:37:35;19.30;65.40
53978;DHT22;39886;47.984;-1.586;2023-01-08T02:42:48;19.40;65.20
53978;DHT22;39886;47.984;-1.586;2023-01-08T02:45:37;19.40;65.10
53978;DHT22;39886;47.984;-1.586;2023-01-08T02:51:05;19.50;65.00
53978;DHT22;39886;47.984;-1.586;2023-01-08T02:53:35;19.40;65.00
53978;DHT22;39886;47.984;-1.586;2023-01-08T02:56:09;19.40;65.40
53978;DHT22;39886;47.984;-1.586;2023-01-08T02:58:37;19.30;65.70
53978;DHT22;39886;47.984;-1.586;2023-01-08T03:01:07;19.20;65.90
53978;DHT22;39886;47.984;-1.586;2023-01-08T03:03:34;19.10;66.20
53978;DHT22;39886;47.984;-1.586;2023-01-08T03:06:04;19.00;66.40
53978;DHT22;39886;47.984;-1.586;2023-01-08T03:08:35;18.90;66.60
53978;DHT22;39886;47.984;-1.586;2023-01-08T03:11:05;18.90;66.80
53978;DHT22;39886;47.984;-1.586;2023-01-08T03:16:18;18.80;67.10
53978;DHT22;39886;47.984;-1.586;2023-01-08T03:18:51;18.70;67.20
53978;DHT22;39886;47.984;-1.586;2023-01-08T03:21:18;18.70;67.20
53978;DHT22;39886;47.984;-1.586;2023-01-08T03:23:47;18.70;67.40
53978;DHT22;39886;47.984;-1.586;2023-01-08T03:26:21;18.60;67.40
53978;DHT22;39886;47.984;-1.586;2023-01-08T03:28:52;18.60;67.50
53978;DHT22;39886;47.984;-1.586;2023-01-08T03:31:19;18.50;67.50
53978;DHT22;39886;47.984;-1.586;2023-01-08T03:33:46;18.50;67.60
53978;DHT22;39886;47.984;-1.586;2023-01-08T03:36:15;18.50;67.60
53978;DHT22;39886;47.984;-1.586;2023-01-08T03:38:48;18.50;67.70
53978;DHT22;39886;47.984;-1.586;2023-01-08T03:41:17;18.40;67.70
53978;DHT22;39886;47.984;-1.586;2023-01-08T03:43:43;18.40;67.70
53978;DHT22;39886;47.984;-1.586;2023-01-08T03:46:20;18.40;67.80
53978;DHT22;39886;47.984;-1.586;2023-01-08T03:48:47;18.40;67.80
53978;DHT22;39886;47.984;-1.586;2023-01-08T03:51:13;18.30;67.90
53978;DHT22;39886;47.984;-1.586;2023-01-08T03:53:39;18.30;67.90
53978;DHT22;39886;47.984;-1.586;2023-01-08T03:56:05;18.30;67.90
53978;DHT22;39886;47.984;-1.586;2023-01-08T03:58:31;18.30;67.90
53978;DHT22;39886;47.984;-1.586;2023-01-08T04:00:57;18.20;68.00
53978;DHT22;39886;47.984;-1.586;2023-01-08T04:03:23;18.20;68.00
53978;DHT22;39886;47.984;-1.586;2023-01-08T04:05:49;18.20;68.00
53978;DHT22;39886;47.984;-1.586;2023-01-08T04:08:15;18.20;68.10
53978;DHT22;39886;47.984;-1.586;2023-01-08T04:10:40;18.20;68.10
53978;DHT22;39886;47.984;-1.586;2023-01-08T04:13:06;18.20;68.10
53978;DHT22;39886;47.984;-1.586;2023-01-08T04:15:32;18.20;68.20
53978;DHT22;39886;47.984;-1.586;2023-01-08T04:17:58;18.10;68.20
53978;DHT22;39886;47.984;-1.586;2023-01-08T04:20:24;18.10;68.20
53978;DHT22;39886;47.984;-1.586;2023-01-08T04:22:49;18.10;68.30
53978;DHT22;39886;47.984;-1.586;2023-01-08T04:25:15;18.10;68.30
53978;DHT22;39886;47.984;-1.586;2023-01-08T04:27:41;18.00;68.30
53978;DHT22;39886;47.984;-1.586;2023-01-08T04:30:07;18.00;68.30
53978;DHT22;39886;47.984;-1.586;2023-01-08T04:32:33;18.00;68.30
53978;DHT22;39886;47.984;-1.586;2023-01-08T04:34:58;18.00;68.40
53978;DHT22;39886;47.984;-1.586;2023-01-08T04:37:24;18.00;68.40
53978;DHT22;39886;47.984;-1.586;2023-01-08T04:39:50;18.00;68.40
53978;DHT22;39886;47.984;-1.586;2023-01-08T04:42:16;18.10;68.30
53978;DHT22;39886;47.984;-1.586;2023-01-08T04:44:41;18.20;67.90
53978;DHT22;39886;47.984;-1.586;2023-01-08T04:47:07;18.30;67.50
53978;DHT22;39886;47.984;-1.586;2023-01-08T04:49:33;18.40;67.20
53978;DHT22;39886;47.984;-1.586;2023-01-08T04:51:58;18.50;67.00
53978;DHT22;39886;47.984;-1.586;2023-01-08T04:54:24;18.60;66.70
53978;DHT22;39886;47.984;-1.586;2023-01-08T04:56:50;18.70;66.50
53978;DHT22;39886;47.984;-1.586;2023-01-08T04:59:16;18.70;66.30
53978;DHT22;39886;47.984;-1.586;2023-01-08T05:01:42;18.80;66.20
53978;DHT22;39886;47.984;-1.586;2023-01-08T05:04:09;18.90;66.00
53978;DHT22;39886;47.984;-1.586;2023-01-08T05:06:35;18.90;65.80
53978;DHT22;39886;47.984;-1.586;2023-01-08T05:09:02;18.90;65.60
53978;DHT22;39886;47.984;-1.586;2023-01-08T05:11:28;19.00;65.50
53978;DHT22;39886;47.984;-1.586;2023-01-08T05:13:53;19.10;65.40
53978;DHT22;39886;47.984;-1.586;2023-01-08T05:16:19;19.10;65.30
53978;DHT22;39886;47.984;-1.586;2023-01-08T05:18:45;19.10;65.80
53978;DHT22;39886;47.984;-1.586;2023-01-08T05:21:11;19.20;65.00
53978;DHT22;39886;47.984;-1.586;2023-01-08T05:23:38;19.20;65.00
53978;DHT22;39886;47.984;-1.586;2023-01-08T05:26:05;19.20;64.80
53978;DHT22;39886;47.984;-1.586;2023-01-08T05:28:32;19.30;64.70
53978;DHT22;39886;47.984;-1.586;2023-01-08T05:30:58;19.30;64.70
53978;DHT22;39886;47.984;-1.586;2023-01-08T05:33:24;19.30;64.50
53978;DHT22;39886;47.984;-1.586;2023-01-08T05:35:50;19.40;64.60
53978;DHT22;39886;47.984;-1.586;2023-01-08T05:38:16;19.40;64.40
53978;DHT22;39886;47.984;-1.586;2023-01-08T05:40:42;19.40;64.30
53978;DHT22;39886;47.984;-1.586;2023-01-08T05:43:07;19.50;64.30
53978;DHT22;39886;47.984;-1.586;2023-01-08T05:45:33;19.50;64.20
53978;DHT22;39886;47.984;-1.586;2023-01-08T05:47:59;19.50;64.10
53978;DHT22;39886;47.984;-1.586;2023-01-08T05:50:28;19.50;64.00
53978;DHT22;39886;47.984;-1.586;2023-01-08T05:52:54;19.50;64.00
53978;DHT22;39886;47.984;-1.586;2023-01-08T05:55:20;19.40;64.20
53978;DHT22;39886;47.984;-1.586;2023-01-08T05:57:45;19.40;64.60
53978;DHT22;39886;47.984;-1.586;2023-01-08T06:00:12;19.20;64.90
53978;DHT22;39886;47.984;-1.586;2023-01-08T06:02:38;19.10;65.20
53978;DHT22;39886;47.984;-1.586;2023-01-08T06:05:04;19.10;66.10
53978;DHT22;39886;47.984;-1.586;2023-01-08T06:07:30;19.00;65.60
53978;DHT22;39886;47.984;-1.586;2023-01-08T06:09:56;18.90;65.80
53978;DHT22;39886;47.984;-1.586;2023-01-08T06:12:21;18.90;66.00
53978;DHT22;39886;47.984;-1.586;2023-01-08T06:14:47;18.80;66.10
53978;DHT22;39886;47.984;-1.586;2023-01-08T06:17:13;18.80;66.20
53978;DHT22;39886;47.984;-1.586;2023-01-08T06:19:40;18.70;66.30
53978;DHT22;39886;47.984;-1.586;2023-01-08T06:22:06;18.70;66.40
53978;DHT22;39886;47.984;-1.586;2023-01-08T06:24:31;18.60;66.40
53978;DHT22;39886;47.984;-1.586;2023-01-08T06:26:57;18.60;66.60
53978;DHT22;39886;47.984;-1.586;2023-01-08T06:29:23;18.60;66.60
53978;DHT22;39886;47.984;-1.586;2023-01-08T06:31:48;18.50;66.70
53978;DHT22;39886;47.984;-1.586;2023-01-08T06:34:14;18.50;66.70
53978;DHT22;39886;47.984;-1.586;2023-01-08T06:36:40;18.50;66.80
53978;DHT22;39886;47.984;-1.586;2023-01-08T06:39:06;18.40;66.80
53978;DHT22;39886;47.984;-1.586;2023-01-08T06:41:32;18.40;66.90
53978;DHT22;39886;47.984;-1.586;2023-01-08T06:43:58;18.40;66.90
53978;DHT22;39886;47.984;-1.586;2023-01-08T06:46:24;18.40;67.00
53978;DHT22;39886;47.984;-1.586;2023-01-08T06:48:50;18.30;67.00
53978;DHT22;39886;47.984;-1.586;2023-01-08T06:51:15;18.30;67.00
53978;DHT22;39886;47.984;-1.586;2023-01-08T06:53:41;18.30;67.10
53978;DHT22;39886;47.984;-1.586;2023-01-08T06:56:07;18.30;67.10
53978;DHT22;39886;47.984;-1.586;2023-01-08T06:58:36;18.30;67.20
53978;DHT22;39886;47.984;-1.586;2023-01-08T07:01:03;18.20;67.10
53978;DHT22;39886;47.984;-1.586;2023-01-08T07:03:28;18.20;67.20
53978;DHT22;39886;47.984;-1.586;2023-01-08T07:05:55;18.20;67.20
53978;DHT22;39886;47.984;-1.586;2023-01-08T07:08:21;18.20;67.30
53978;DHT22;39886;47.984;-1.586;2023-01-08T07:10:47;18.20;67.30
53978;DHT22;39886;47.984;-1.586;2023-01-08T07:13:14;18.20;67.30
53978;DHT22;39886;47.984;-1.586;2023-01-08T07:15:40;18.10;67.40
53978;DHT22;39886;47.984;-1.586;2023-01-08T07:18:07;18.10;67.40
53978;DHT22;39886;47.984;-1.586;2023-01-08T07:20:33;18.10;67.40
53978;DHT22;39886;47.984;-1.586;2023-01-08T07:23:04;18.10;67.50
53978;DHT22;39886;47.984;-1.586;2023-01-08T07:25:31;18.10;67.50
53978;DHT22;39886;47.984;-1.586;2023-01-08T07:27:58;18.00;67.50
53978;DHT22;39886;47.984;-1.586;2023-01-08T07:30:24;18.00;67.50
53978;DHT22;39886;47.984;-1.586;2023-01-08T07:32:50;18.00;67.60
53978;DHT22;39886;47.984;-1.586;2023-01-08T07:35:16;18.00;67.60
53978;DHT22;39886;47.984;-1.586;2023-01-08T07:37:42;18.00;67.70
53978;DHT22;39886;47.984;-1.586;2023-01-08T07:40:09;18.00;67.70
53978;DHT22;39886;47.984;-1.586;2023-01-08T07:42:36;18.10;67.50
53978;DHT22;39886;47.984;-1.586;2023-01-08T07:45:02;18.20;67.10
53978;DHT22;39886;47.984;-1.586;2023-01-08T07:47:28;18.30;66.80
53978;DHT22;39886;47.984;-1.586;2023-01-08T07:49:53;18.40;66.50
53978;DHT22;39886;47.984;-1.586;2023-01-08T07:52:19;18.50;66.20
53978;DHT22;39886;47.984;-1.586;2023-01-08T07:54:45;18.50;66.00
53978;DHT22;39886;47.984;-1.586;2023-01-08T07:57:11;18.60;65.80
53978;DHT22;39886;47.984;-1.586;2023-01-08T07:59:36;18.70;65.60
53978;DHT22;39886;47.984;-1.586;2023-01-08T08:02:02;18.80;65.40
53978;DHT22;39886;47.984;-1.586;2023-01-08T08:04:28;18.80;65.20
53978;DHT22;39886;47.984;-1.586;2023-01-08T08:06:54;18.90;65.70
53978;DHT22;39886;47.984;-1.586;2023-01-08T08:09:20;18.90;64.90
53978;DHT22;39886;47.984;-1.586;2023-01-08T08:11:45;19.00;64.70
53978;DHT22;39886;47.984;-1.586;2023-01-08T08:14:11;19.00;64.60
53978;DHT22;39886;47.984;-1.586;2023-01-08T08:16:37;19.10;64.50
53978;DHT22;39886;47.984;-1.586;2023-01-08T08:19:03;19.10;64.40
53978;DHT22;39886;47.984;-1.586;2023-01-08T08:21:28;19.10;64.40
53978;DHT22;39886;47.984;-1.586;2023-01-08T08:23:55;19.20;64.20
53978;DHT22;39886;47.984;-1.586;2023-01-08T08:26:21;19.20;64.20
53978;DHT22;39886;47.984;-1.586;2023-01-08T08:28:47;19.20;64.10
53978;DHT22;39886;47.984;-1.586;2023-01-08T08:31:13;19.30;64.00
53978;DHT22;39886;47.984;-1.586;2023-01-08T08:33:39;19.30;63.90
53978;DHT22;39886;47.984;-1.586;2023-01-08T08:36:05;19.40;63.90
53978;DHT22;39886;47.984;-1.586;2023-01-08T08:38:31;19.40;63.80
53978;DHT22;39886;47.984;-1.586;2023-01-08T08:40:56;19.40;63.70
53978;DHT22;39886;47.984;-1.586;2023-01-08T08:43:22;19.40;63.60
53978;DHT22;39886;47.984;-1.586;2023-01-08T08:45:48;19.50;63.60
53978;DHT22;39886;47.984;-1.586;2023-01-08T08:48:13;19.50;63.50
53978;DHT22;39886;47.984;-1.586;2023-01-08T08:50:41;19.50;63.40
53978;DHT22;39886;47.984;-1.586;2023-01-08T08:53:08;19.50;63.40
53978;DHT22;39886;47.984;-1.586;2023-01-08T08:55:34;19.40;63.70
53978;DHT22;39886;47.984;-1.586;2023-01-08T08:58:05;19.30;63.90
53978;DHT22;39886;47.984;-1.586;2023-01-08T09:00:31;19.20;64.20
53978;DHT22;39886;47.984;-1.586;2023-01-08T09:02:57;19.10;64.40
53978;DHT22;39886;47.984;-1.586;2023-01-08T09:05:22;19.00;64.70
53978;DHT22;39886;47.984;-1.586;2023-01-08T09:07:48;19.00;65.00
53978;DHT22;39886;47.984;-1.586;2023-01-08T09:10:14;18.90;65.10
53978;DHT22;39886;47.984;-1.586;2023-01-08T09:12:39;18.90;65.30
53978;DHT22;39886;47.984;-1.586;2023-01-08T09:15:06;18.80;65.40
53978;DHT22;39886;47.984;-1.586;2023-01-08T09:17:32;18.80;65.50
53978;DHT22;39886;47.984;-1.586;2023-01-08T09:19:59;18.70;65.50
53978;DHT22;39886;47.984;-1.586;2023-01-08T09:22:25;18.70;65.70
53978;DHT22;39886;47.984;-1.586;2023-01-08T09:24:50;18.70;65.70
53978;DHT22;39886;47.984;-1.586;2023-01-08T09:27:16;18.60;65.80
53978;DHT22;39886;47.984;-1.586;2023-01-08T09:29:42;18.60;65.90
53978;DHT22;39886;47.984;-1.586;2023-01-08T09:32:08;18.60;66.00
53978;DHT22;39886;47.984;-1.586;2023-01-08T09:34:34;18.50;66.00
53978;DHT22;39886;47.984;-1.586;2023-01-08T09:37:03;18.50;66.00
53978;DHT22;39886;47.984;-1.586;2023-01-08T09:39:29;18.50;66.00
53978;DHT22;39886;47.984;-1.586;2023-01-08T09:41:55;18.50;66.10
53978;DHT22;39886;47.984;-1.586;2023-01-08T09:44:28;18.50;66.20
53978;DHT22;39886;47.984;-1.586;2023-01-08T09:46:55;18.40;66.10
53978;DHT22;39886;47.984;-1.586;2023-01-08T09:49:39;18.40;66.20
53978;DHT22;39886;47.984;-1.586;2023-01-08T09:52:07;18.40;66.20
53978;DHT22;39886;47.984;-1.586;2023-01-08T09:54:34;18.40;66.20
53978;DHT22;39886;47.984;-1.586;2023-01-08T09:57:00;18.40;66.30
53978;DHT22;39886;47.984;-1.586;2023-01-08T09:59:26;18.40;66.30
53978;DHT22;39886;47.984;-1.586;2023-01-08T10:01:52;18.30;66.30
53978;DHT22;39886;47.984;-1.586;2023-01-08T10:04:23;18.30;66.30
53978;DHT22;39886;47.984;-1.586;2023-01-08T10:07:04;18.30;66.40
53978;DHT22;39886;47.984;-1.586;2023-01-08T10:09:36;18.30;66.40
53978;DHT22;39886;47.984;-1.586;2023-01-08T10:12:03;18.30;66.50
53978;DHT22;39886;47.984;-1.586;2023-01-08T10:14:33;18.30;66.50
53978;DHT22;39886;47.984;-1.586;2023-01-08T10:19:40;18.30;66.60
53978;DHT22;39886;47.984;-1.586;2023-01-08T10:22:12;18.30;66.60
53978;DHT22;39886;47.984;-1.586;2023-01-08T10:24:39;18.20;66.60
53978;DHT22;39886;47.984;-1.586;2023-01-08T10:27:13;18.20;66.70
53978;DHT22;39886;47.984;-1.586;2023-01-08T10:29:39;18.20;66.70
53978;DHT22;39886;47.984;-1.586;2023-01-08T10:32:13;18.20;66.70
53978;DHT22;39886;47.984;-1.586;2023-01-08T10:37:27;18.20;66.70
53978;DHT22;39886;47.984;-1.586;2023-01-08T10:39:56;18.20;66.70
53978;DHT22;39886;47.984;-1.586;2023-01-08T10:42:23;18.20;66.80
53978;DHT22;39886;47.984;-1.586;2023-01-08T10:45:00;18.20;67.40
53978;DHT22;39886;47.984;-1.586;2023-01-08T10:47:29;18.20;66.90
53978;DHT22;39886;47.984;-1.586;2023-01-08T10:49:57;18.10;66.80
53978;DHT22;39886;47.984;-1.586;2023-01-08T10:54:54;18.10;66.80
53978;DHT22;39886;47.984;-1.586;2023-01-08T10:57:28;18.10;66.80
53978;DHT22;39886;47.984;-1.586;2023-01-08T10:59:55;18.10;66.80
53978;DHT22;39886;47.984;-1.586;2023-01-08T11:04:54;18.10;66.90
53978;DHT22;39886;47.984;-1.586;2023-01-08T11:07:22;18.10;66.90
53978;DHT22;39886;47.984;-1.586;2023-01-08T11:09:49;18.10;66.90
53978;DHT22;39886;47.984;-1.586;2023-01-08T11:12:31;18.10;67.00
53978;DHT22;39886;47.984;-1.586;2023-01-08T11:14:58;18.10;67.60
53978;DHT22;39886;47.984;-1.586;2023-01-08T11:17:25;18.10;67.00
53978;DHT22;39886;47.984;-1.586;2023-01-08T11:19:51;18.10;67.00
53978;DHT22;39886;47.984;-1.586;2023-01-08T11:22:20;18.10;67.00
53978;DHT22;39886;47.984;-1.586;2023-01-08T11:24:48;18.10;67.00
53978;DHT22;39886;47.984;-1.586;2023-01-08T11:27:25;18.00;67.00
53978;DHT22;39886;47.984;-1.586;2023-01-08T11:35:35;18.00;67.00
53978;DHT22;39886;47.984;-1.586;2023-01-08T11:38:01;18.00;67.00
53978;DHT22;39886;47.984;-1.586;2023-01-08T11:43:26;18.10;67.10
53978;DHT22;39886;47.984;-1.586;2023-01-08T11:45:59;18.10;67.10
53978;DHT22;39886;47.984;-1.586;2023-01-08T11:51:52;18.10;67.10
53978;DHT22;39886;47.984;-1.586;2023-01-08T11:57:38;18.10;67.10
53978;DHT22;39886;47.984;-1.586;2023-01-08T12:00:26;18.10;67.10
53978;DHT22;39886;47.984;-1.586;2023-01-08T12:02:58;18.00;67.00
53978;DHT22;39886;47.984;-1.586;2023-01-08T12:05:42;18.10;67.10
53978;DHT22;39886;47.984;-1.586;2023-01-08T12:08:42;18.10;67.10
53978;DHT22;39886;47.984;-1.586;2023-01-08T12:11:29;18.10;67.10
53978;DHT22;39886;47.984;-1.586;2023-01-08T12:19:29;18.20;66.90
53978;DHT22;39886;47.984;-1.586;2023-01-08T12:25:03;18.20;66.80
53978;DHT22;39886;47.984;-1.586;2023-01-08T12:35:44;18.70;65.50
53978;DHT22;39886;47.984;-1.586;2023-01-08T12:38:17;18.80;65.10
53978;DHT22;39886;47.984;-1.586;2023-01-08T12:40:53;18.90;64.70
53978;DHT22;39886;47.984;-1.586;2023-01-08T12:43:30;19.00;64.40
53978;DHT22;39886;47.984;-1.586;2023-01-08T12:45:59;19.10;64.20
53978;DHT22;39886;47.984;-1.586;2023-01-08T12:48:30;19.20;64.10
53978;DHT22;39886;47.984;-1.586;2023-01-08T12:53:48;19.30;63.70
53978;DHT22;39886;47.984;-1.586;2023-01-08T13:01:44;19.50;63.40
53978;DHT22;39886;47.984;-1.586;2023-01-08T13:04:12;19.60;63.20
53978;DHT22;39886;47.984;-1.586;2023-01-08T13:06:50;19.60;63.10
53978;DHT22;39886;47.984;-1.586;2023-01-08T13:09:23;19.60;63.00
53978;DHT22;39886;47.984;-1.586;2023-01-08T13:11:55;19.70;62.90
53978;DHT22;39886;47.984;-1.586;2023-01-08T13:14:22;19.80;62.70
53978;DHT22;39886;47.984;-1.586;2023-01-08T13:17:03;19.80;62.60
53978;DHT22;39886;47.984;-1.586;2023-01-08T13:19:38;19.90;62.50
53978;DHT22;39886;47.984;-1.586;2023-01-08T13:22:23;19.90;62.40
53978;DHT22;39886;47.984;-1.586;2023-01-08T13:24:50;20.00;62.30
53978;DHT22;39886;47.984;-1.586;2023-01-08T13:29:46;20.10;62.20
53978;DHT22;39886;47.984;-1.586;2023-01-08T13:35:18;20.20;61.80
53978;DHT22;39886;47.984;-1.586;2023-01-08T13:37:46;20.20;61.60
53978;DHT22;39886;47.984;-1.586;2023-01-08T13:48:47;19.90;62.70
53978;DHT22;39886;47.984;-1.586;2023-01-08T13:51:42;19.80;62.90
53978;DHT22;39886;47.984;-1.586;2023-01-08T13:56:41;19.60;63.50
53978;DHT22;39886;47.984;-1.586;2023-01-08T13:59:38;19.60;63.80
53978;DHT22;39886;47.984;-1.586;2023-01-08T14:02:03;19.50;63.90
53978;DHT22;39886;47.984;-1.586;2023-01-08T14:04:29;19.40;64.00
53978;DHT22;39886;47.984;-1.586;2023-01-08T14:07:11;19.40;64.20
53978;DHT22;39886;47.984;-1.586;2023-01-08T14:09:37;19.30;64.30
53978;DHT22;39886;47.984;-1.586;2023-01-08T14:12:03;19.30;64.40
53978;DHT22;39886;47.984;-1.586;2023-01-08T14:14:29;19.30;64.50
53978;DHT22;39886;47.984;-1.586;2023-01-08T14:16:55;19.20;64.50
53978;DHT22;39886;47.984;-1.586;2023-01-08T14:19:23;19.20;64.60
53978;DHT22;39886;47.984;-1.586;2023-01-08T14:21:54;19.20;64.70
53978;DHT22;39886;47.984;-1.586;2023-01-08T14:24:22;19.10;64.70
53978;DHT22;39886;47.984;-1.586;2023-01-08T14:26:54;19.10;64.80
53978;DHT22;39886;47.984;-1.586;2023-01-08T14:29:22;19.10;64.90
53978;DHT22;39886;47.984;-1.586;2023-01-08T14:31:51;19.10;65.00
53978;DHT22;39886;47.984;-1.586;2023-01-08T14:34:18;19.00;65.00
53978;DHT22;39886;47.984;-1.586;2023-01-08T14:36:45;19.00;65.10
53978;DHT22;39886;47.984;-1.586;2023-01-08T14:39:20;19.00;65.10
53978;DHT22;39886;47.984;-1.586;2023-01-08T14:41:46;18.90;65.10
53978;DHT22;39886;47.984;-1.586;2023-01-08T14:44:32;18.90;65.20
53978;DHT22;39886;47.984;-1.586;2023-01-08T14:46:57;18.90;65.20
53978;DHT22;39886;47.984;-1.586;2023-01-08T14:49:29;18.90;65.30
53978;DHT22;39886;47.984;-1.586;2023-01-08T14:51:58;18.80;65.40
53978;DHT22;39886;47.984;-1.586;2023-01-08T14:54:34;18.80;66.10
53978;DHT22;39886;47.984;-1.586;2023-01-08T14:57:01;18.80;65.50
53978;DHT22;39886;47.984;-1.586;2023-01-08T14:59:31;18.80;65.50
53978;DHT22;39886;47.984;-1.586;2023-01-08T15:02:00;18.70;65.50
53978;DHT22;39886;47.984;-1.586;2023-01-08T15:04:28;18.70;65.60
53978;DHT22;39886;47.984;-1.586;2023-01-08T15:07:27;18.70;65.60
53978;DHT22;39886;47.984;-1.586;2023-01-08T15:09:57;18.70;65.70
53978;DHT22;39886;47.984;-1.586;2023-01-08T15:12:30;18.60;65.80
53978;DHT22;39886;47.984;-1.586;2023-01-08T15:15:10;18.60;65.90
53978;DHT22;39886;47.984;-1.586;2023-01-08T15:17:39;18.60;65.90
53978;DHT22;39886;47.984;-1.586;2023-01-08T15:20:05;18.60;66.00
53978;DHT22;39886;47.984;-1.586;2023-01-08T15:22:44;18.60;66.00
53978;DHT22;39886;47.984;-1.586;2023-01-08T15:25:21;18.50;66.10
53978;DHT22;39886;47.984;-1.586;2023-01-08T15:28:00;18.50;66.10
53978;DHT22;39886;47.984;-1.586;2023-01-08T15:30:36;18.50;66.20
53978;DHT22;39886;47.984;-1.586;2023-01-08T15:33:16;18.40;66.20
53978;DHT22;39886;47.984;-1.586;2023-01-08T15:35:42;18.40;66.20
53978;DHT22;39886;47.984;-1.586;2023-01-08T15:38:08;18.40;66.30
53978;DHT22;39886;47.984;-1.586;2023-01-08T15:40:34;18.40;66.40
53978;DHT22;39886;47.984;-1.586;2023-01-08T15:43:00;18.30;66.40
53978;DHT22;39886;47.984;-1.586;2023-01-08T15:45:35;18.40;66.50
53978;DHT22;39886;47.984;-1.586;2023-01-08T15:48:01;18.30;66.40
53978;DHT22;39886;47.984;-1.586;2023-01-08T15:50:28;18.30;66.50
53978;DHT22;39886;47.984;-1.586;2023-01-08T15:52:56;18.30;66.50
53978;DHT22;39886;47.984;-1.586;2023-01-08T15:55:24;18.30;66.60
53978;DHT22;39886;47.984;-1.586;2023-01-08T15:57:49;18.20;66.50
53978;DHT22;39886;47.984;-1.586;2023-01-08T16:00:17;18.30;66.60
53978;DHT22;39886;47.984;-1.586;2023-01-08T16:02:48;18.20;66.60
53978;DHT22;39886;47.984;-1.586;2023-01-08T16:05:17;18.20;66.70
53978;DHT22;39886;47.984;-1.586;2023-01-08T16:07:43;18.20;66.70
53978;DHT22;39886;47.984;-1.586;2023-01-08T16:10:13;18.20;66.70
53978;DHT22;39886;47.984;-1.586;2023-01-08T16:12:39;18.20;66.80
53978;DHT22;39886;47.984;-1.586;2023-01-08T16:15:05;18.20;66.80
53978;DHT22;39886;47.984;-1.586;2023-01-08T16:17:33;18.10;66.80
53978;DHT22;39886;47.984;-1.586;2023-01-08T16:20:03;18.10;66.80
53978;DHT22;39886;47.984;-1.586;2023-01-08T16:22:29;18.10;66.80
53978;DHT22;39886;47.984;-1.586;2023-01-08T16:24:55;18.10;67.00
53978;DHT22;39886;47.984;-1.586;2023-01-08T16:27:21;18.00;66.90
53978;DHT22;39886;47.984;-1.586;2023-01-08T16:29:46;18.00;66.90
53978;DHT22;39886;47.984;-1.586;2023-01-08T16:32:12;18.00;67.00
53978;DHT22;39886;47.984;-1.586;2023-01-08T16:34:38;18.00;67.00
53978;DHT22;39886;47.984;-1.586;2023-01-08T16:37:03;18.00;67.00
53978;DHT22;39886;47.984;-1.586;2023-01-08T16:39:29;18.00;67.10
53978;DHT22;39886;47.984;-1.586;2023-01-08T16:41:57;18.00;67.00
53978;DHT22;39886;47.984;-1.586;2023-01-08T16:44:24;18.20;66.60
53978;DHT22;39886;47.984;-1.586;2023-01-08T16:46:53;18.30;66.20
53978;DHT22;39886;47.984;-1.586;2023-01-08T16:49:19;18.40;65.90